Terminal Aerodrome Forecast
Issued by NWS

Home | Current Version | Previous Version | Text Only | Print | Product List | Glossary On
Versions: 1 2 3 4 5 6 7 8 9 10 11 12 13 14 15 16 17 18 19 20 21 22 23 24 25 26 27 28 29 30 31 32 33 34 35 36 37 38 39 40 41 42 43 44 45 46 47 48 49 50
000
FTUS45 KBOU 271724
TAFAPA
TAF
KAPA 271724Z 2718/2818 15012KT P6SM FEW030 SCT080
     FM280200 18010KT P6SM FEW040 SCT080 BKN120
     FM280800 22007KT P6SM FEW025 SCT060 BKN100
     FM281000 28006KT P6SM FEW005 SCT100
     FM281200 33006KT P6SM VCFG BKN005
     FM281600 VRB05KT P6SM SCT005=

USA.gov is the U.S. government's official web portal to all federal, state and local government web resources and services.